CST,Max TemperatureF,Mean TemperatureF,Min TemperatureF,Max Dew PointF,MeanDew PointF,Min DewpointF,Max Humidity, Mean Humidity, Min Humidity, Max Sea Level PressureIn, Mean Sea Level PressureIn, Min Sea Level PressureIn, Max VisibilityMiles, Mean VisibilityMiles, Min VisibilityMiles, Max Wind SpeedMPH, Mean Wind SpeedMPH, Max Gust SpeedMPH,PrecipitationIn, CloudCover, Events, WindDirDegrees
2012-12-1,69,52,35,50,44,32,93,74,49,30.28,30.22,30.16,10,9,0,16,5,23,0.00,0,Fog,165
2012-12-2,69,60,50,57,54,46,94,80,64,30.27,30.20,30.16,10,10,10,14,8,20,0.00,5,,171
2012-12-3,73,63,53,55,52,50,94,71,44,30.22,30.17,30.12,10,10,10,15,9,20,0.00,2,,166
2012-12-4,69,61,53,63,57,52,94,86,68,30.20,30.16,30.11,10,9,1,14,8,26,0.19,7,Rain-Thunderstorm,191
2012-12-5,64,55,46,55,42,32,100,61,32,30.27,30.19,30.09,10,8,1,15,5,20,0.00,6,Rain,40
2012-12-6,66,58,50,57,51,39,100,79,62,30.09,30.03,29.96,10,8,0,12,2,,0.01,8,Fog-Rain,161
2012-12-7,62,58,55,57,56,54,100,87,77,29.99,29.94,29.88,10,9,3,14,8,20,0.00,7,Rain,170
2012-12-8,66,62,59,61,58,55,94,88,82,29.98,29.92,29.89,10,8,2,13,6,17,0.26,7,Rain-Thunderstorm,186
2012-12-9,71,66,60,59,58,57,94,80,60,29.95,29.88,29.76,10,9,6,17,10,22,0.23,5,Rain-Thunderstorm,175
2012-12-10,59,46,32,57,39,25,100,83,70,30.06,29.88,29.73,10,7,1,16,9,24,1.55,7,Rain-Thunderstorm,328
2012-12-11,46,37,26,27,24,19,93,66,34,30.26,30.16,30.07,10,10,4,12,6,,0.00,2,,8
2012-12-12,50,37,24,28,23,16,93,64,28,30.34,30.30,30.26,10,10,10,10,3,16,0.00,0,,360
2012-12-13,57,40,23,30,24,18,93,70,21,30.41,30.34,30.27,10,10,7,7,2,,0.00,0,,240
2012-12-14,57,40,24,41,34,23,93,73,48,30.34,30.24,30.12,10,10,8,9,3,,0.00,1,Rain,167
2012-12-15,59,54,48,57,49,43,94,83,72,30.13,29.98,29.87,10,9,2,18,10,25,0.48,8,Rain,167
2012-12-16,62,60,57,59,56,54,94,90,82,29.87,29.81,29.73,10,10,4,16,8,23,0.30,7,Rain-Thunderstorm,184
2012-12-17,64,52,37,55,50,36,94,83,55,29.86,29.74,29.64,10,9,2,15,7,21,0.05,5,Rain,232
2012-12-18,60,46,32,41,38,30,100,78,42,29.98,29.91,29.87,10,7,0,12,4,17,0.00,2,Fog,169
2012-12-19,68,54,41,46,42,37,93,66,35,30.01,29.93,29.79,10,10,9,18,7,25,0.00,0,,157
2012-12-20,62,52,41,59,40,25,94,65,46,29.99,29.74,29.55,10,9,3,33,18,47,0.22,7,Rain,241
2012-12-21,,,,,,,,,,,,,,,,,,,,,,
2012-12-22,,,,,,,,,,,,,,,,,,,,,,
2012-12-23,,,,,,,,,,,,,,,,,,,,,,
2012-12-24,,,,,,,,,,,,,,,,,,,,,,
2012-12-25,,,,,,,,,,,,,,,,,,,,,,
2012-12-26,,,,,,,,,,,,,,,,,,,,,,
2012-12-27,,,,,,,,,,,,,,,,,,,,,,
2012-12-28,,,,,,,,,,,,,,,,,,,,,,
2012-12-29,,,,,,,,,,,,,,,,,,,,,,
2012-12-30,,,,,,,,,,,,,,,,,,,,,,
2012-12-31,,,,,,,,,,,,,,,,,,,,,,